sensor_id;sensor_type;location;lat;lon;timestamp;temperature;humidity
78571;SHT31;67861;51.966;5.672;2023-04-28T09:47:20;19.1;54.6
78571;SHT31;67861;51.966;5.672;2023-04-28T09:49:55;18.8;55.6
78571;SHT31;67861;51.966;5.672;2023-04-28T09:52:26;18.7;56.4
78571;SHT31;67861;51.966;5.672;2023-04-28T09:54:56;18.6;56.9
78571;SHT31;67861;51.966;5.672;2023-04-28T09:57:29;18.6;57.3
78571;SHT31;67861;51.966;5.672;2023-04-28T10:00:01;18.5;57.8
78571;SHT31;67861;51.966;5.672;2023-04-28T10:02:34;18.4;58.0
78571;SHT31;67861;51.966;5.672;2023-04-28T10:05:08;18.3;59.0
78571;SHT31;67861;51.966;5.672;2023-04-28T10:07:39;18.2;59.4
78571;SHT31;67861;51.966;5.672;2023-04-28T10:10:10;18.1;59.9
78571;SHT31;67861;51.966;5.672;2023-04-28T10:12:41;18.0;60.6
78571;SHT31;67861;51.966;5.672;2023-04-28T10:15:12;18.0;61.1
78571;SHT31;67861;51.966;5.672;2023-04-28T10:20:25;17.9;62.0
78571;SHT31;67861;51.966;5.672;2023-04-28T10:27:28;17.8;62.9
78571;SHT31;67861;51.966;5.672;2023-04-28T10:30:23;17.8;62.6
78571;SHT31;67861;51.966;5.672;2023-04-28T10:33:31;17.9;63.2
78571;SHT31;67861;51.966;5.672;2023-04-28T10:36:04;18.0;62.8
78571;SHT31;67861;51.966;5.672;2023-04-28T10:38:35;18.0;62.5
78571;SHT31;67861;51.966;5.672;2023-04-28T10:41:31;18.1;62.5
78571;SHT31;67861;51.966;5.672;2023-04-28T10:44:41;18.1;62.4
78571;SHT31;67861;51.966;5.672;2023-04-28T10:47:11;18.1;63.2
78571;SHT31;67861;51.966;5.672;2023-04-28T10:50:07;18.1;62.8
78571;SHT31;67861;51.966;5.672;2023-04-28T10:52:58;18.1;63.3
78571;SHT31;67861;51.966;5.672;2023-04-28T10:55:29;18.0;63.4
78571;SHT31;67861;51.966;5.672;2023-04-28T10:59:26;18.0;63.8
78571;SHT31;67861;51.966;5.672;2023-04-28T11:02:36;18.0;64.5
78571;SHT31;67861;51.966;5.672;2023-04-28T11:05:11;18.0;64.2
78571;SHT31;67861;51.966;5.672;2023-04-28T11:11:10;18.0;64.0
78571;SHT31;67861;51.966;5.672;2023-04-28T11:13:41;18.0;64.6
78571;SHT31;67861;51.966;5.672;2023-04-28T11:16:16;18.0;63.9
78571;SHT31;67861;51.966;5.672;2023-04-28T11:18:54;18.0;64.1
78571;SHT31;67861;51.966;5.672;2023-04-28T11:21:26;18.0;64.1
78571;SHT31;67861;51.966;5.672;2023-04-28T11:23:56;18.0;64.0
78571;SHT31;67861;51.966;5.672;2023-04-28T11:26:29;18.1;63.9
78571;SHT31;67861;51.966;5.672;2023-04-28T11:28:59;18.1;63.4
78571;SHT31;67861;51.966;5.672;2023-04-28T11:31:28;18.1;63.7
78571;SHT31;67861;51.966;5.672;2023-04-28T11:34:01;18.1;63.5
78571;SHT31;67861;51.966;5.672;2023-04-28T11:36:33;18.0;63.5
78571;SHT31;67861;51.966;5.672;2023-04-28T11:39:06;18.0;64.0
78571;SHT31;67861;51.966;5.672;2023-04-28T11:41:38;18.0;63.5
78571;SHT31;67861;51.966;5.672;2023-04-28T11:44:12;18.0;64.0
78571;SHT31;67861;51.966;5.672;2023-04-28T11:46:47;18.0;63.9
78571;SHT31;67861;51.966;5.672;2023-04-28T11:49:23;18.0;64.0
78571;SHT31;67861;51.966;5.672;2023-04-28T11:51:55;18.0;64.4
78571;SHT31;67861;51.966;5.672;2023-04-28T11:54:27;18.0;64.5
78571;SHT31;67861;51.966;5.672;2023-04-28T11:56:59;18.0;64.4
78571;SHT31;67861;51.966;5.672;2023-04-28T11:59:32;18.0;64.0
78571;SHT31;67861;51.966;5.672;2023-04-28T12:02:04;18.0;64.4
78571;SHT31;67861;51.966;5.672;2023-04-28T12:04:35;18.0;65.2
78571;SHT31;67861;51.966;5.672;2023-04-28T12:07:10;18.0;65.0
78571;SHT31;67861;51.966;5.672;2023-04-28T12:09:42;18.0;64.8
78571;SHT31;67861;51.966;5.672;2023-04-28T12:12:13;18.0;64.4
78571;SHT31;67861;51.966;5.672;2023-04-28T12:14:58;18.0;64.5
78571;SHT31;67861;51.966;5.672;2023-04-28T12:17:30;18.0;64.8
78571;SHT31;67861;51.966;5.672;2023-04-28T12:20:02;18.1;64.5
78571;SHT31;67861;51.966;5.672;2023-04-28T12:22:42;18.1;64.5
78571;SHT31;67861;51.966;5.672;2023-04-28T12:25:15;18.1;64.2
78571;SHT31;67861;51.966;5.672;2023-04-28T12:28:01;18.2;64.4
78571;SHT31;67861;51.966;5.672;2023-04-28T12:30:32;18.2;64.2
78571;SHT31;67861;51.966;5.672;2023-04-28T12:33:04;18.2;64.4
78571;SHT31;67861;51.966;5.672;2023-04-28T12:35:35;18.2;64.2
78571;SHT31;67861;51.966;5.672;2023-04-28T12:38:05;18.3;64.2
78571;SHT31;67861;51.966;5.672;2023-04-28T12:40:35;18.4;63.2
78571;SHT31;67861;51.966;5.672;2023-04-28T12:43:04;18.4;62.7
78571;SHT31;67861;51.966;5.672;2023-04-28T12:45:34;18.3;63.4
78571;SHT31;67861;51.966;5.672;2023-04-28T12:48:04;18.3;63.2
78571;SHT31;67861;51.966;5.672;2023-04-28T12:50:34;18.3;63.9
78571;SHT31;67861;51.966;5.672;2023-04-28T12:53:05;18.3;63.0
78571;SHT31;67861;51.966;5.672;2023-04-28T12:55:35;18.3;62.9
78571;SHT31;67861;51.966;5.672;2023-04-28T12:58:05;18.2;62.9
78571;SHT31;67861;51.966;5.672;2023-04-28T13:00:37;18.2;63.2
78571;SHT31;67861;51.966;5.672;2023-04-28T13:03:08;18.2;63.5
78571;SHT31;67861;51.966;5.672;2023-04-28T13:05:38;18.2;64.1
78571;SHT31;67861;51.966;5.672;2023-04-28T13:08:08;18.2;64.3
78571;SHT31;67861;51.966;5.672;2023-04-28T13:10:39;18.2;64.5
78571;SHT31;67861;51.966;5.672;2023-04-28T13:13:09;18.2;64.6
78571;SHT31;67861;51.966;5.672;2023-04-28T13:15:38;18.3;64.2
78571;SHT31;67861;51.966;5.672;2023-04-28T13:18:08;18.4;64.6
78571;SHT31;67861;51.966;5.672;2023-04-28T13:20:38;18.5;63.5
78571;SHT31;67861;51.966;5.672;2023-04-28T13:23:08;18.5;63.5
78571;SHT31;67861;51.966;5.672;2023-04-28T13:25:37;18.6;63.2
78571;SHT31;67861;51.966;5.672;2023-04-28T13:28:07;18.6;62.9
78571;SHT31;67861;51.966;5.672;2023-04-28T13:30:36;18.6;63.7
78571;SHT31;67861;51.966;5.672;2023-04-28T13:33:06;18.6;63.9
78571;SHT31;67861;51.966;5.672;2023-04-28T13:35:36;18.6;63.1
78571;SHT31;67861;51.966;5.672;2023-04-28T13:38:05;18.6;63.4
78571;SHT31;67861;51.966;5.672;2023-04-28T13:40:35;18.6;63.4
78571;SHT31;67861;51.966;5.672;2023-04-28T13:43:04;18.6;63.4
78571;SHT31;67861;51.966;5.672;2023-04-28T13:45:39;18.6;63.8
78571;SHT31;67861;51.966;5.672;2023-04-28T13:48:09;18.6;63.7
78571;SHT31;67861;51.966;5.672;2023-04-28T13:50:39;18.6;63.9
78571;SHT31;67861;51.966;5.672;2023-04-28T13:53:09;18.6;64.3
78571;SHT31;67861;51.966;5.672;2023-04-28T13:55:39;18.6;63.8
78571;SHT31;67861;51.966;5.672;2023-04-28T13:58:15;18.6;63.6
78571;SHT31;67861;51.966;5.672;2023-04-28T14:00:44;18.6;63.9
78571;SHT31;67861;51.966;5.672;2023-04-28T14:03:14;18.6;63.8
78571;SHT31;67861;51.966;5.672;2023-04-28T14:05:44;18.6;63.9
78571;SHT31;67861;51.966;5.672;2023-04-28T14:08:14;18.6;63.8
78571;SHT31;67861;51.966;5.672;2023-04-28T14:10:44;18.7;64.5
78571;SHT31;67861;51.966;5.672;2023-04-28T14:13:18;18.8;64.0
78571;SHT31;67861;51.966;5.672;2023-04-28T14:15:47;18.9;63.5
78571;SHT31;67861;51.966;5.672;2023-04-28T14:18:20;18.9;63.0
78571;SHT31;67861;51.966;5.672;2023-04-28T14:20:49;18.9;62.8
78571;SHT31;67861;51.966;5.672;2023-04-28T14:23:20;18.9;62.9
78571;SHT31;67861;51.966;5.672;2023-04-28T14:25:51;18.9;62.5
78571;SHT31;67861;51.966;5.672;2023-04-28T14:28:24;18.9;62.8
78571;SHT31;67861;51.966;5.672;2023-04-28T14:30:54;18.9;63.1
78571;SHT31;67861;51.966;5.672;2023-04-28T14:33:27;18.9;62.8
78571;SHT31;67861;51.966;5.672;2023-04-28T14:35:56;18.9;62.9
78571;SHT31;67861;51.966;5.672;2023-04-28T14:38:27;19.0;63.2
78571;SHT31;67861;51.966;5.672;2023-04-28T14:40:57;19.0;63.1
78571;SHT31;67861;51.966;5.672;2023-04-28T14:43:27;19.0;62.5
78571;SHT31;67861;51.966;5.672;2023-04-28T14:45:56;19.0;62.2
78571;SHT31;67861;51.966;5.672;2023-04-28T14:48:26;19.0;62.6
78571;SHT31;67861;51.966;5.672;2023-04-28T14:50:56;18.9;63.3
78571;SHT31;67861;51.966;5.672;2023-04-28T14:53:27;18.9;63.7
78571;SHT31;67861;51.966;5.672;2023-04-28T14:55:58;18.8;63.2
78571;SHT31;67861;51.966;5.672;2023-04-28T14:58:30;18.8;64.3
78571;SHT31;67861;51.966;5.672;2023-04-28T15:01:01;18.8;64.7
78571;SHT31;67861;51.966;5.672;2023-04-28T15:03:31;18.7;64.4
78571;SHT31;67861;51.966;5.672;2023-04-28T15:06:01;18.7;64.5
78571;SHT31;67861;51.966;5.672;2023-04-28T15:08:31;18.7;64.5
78571;SHT31;67861;51.966;5.672;2023-04-28T15:11:01;18.7;63.8
78571;SHT31;67861;51.966;5.672;2023-04-28T15:13:31;18.7;63.7
78571;SHT31;67861;51.966;5.672;2023-04-28T15:16:01;18.6;63.4
78571;SHT31;67861;51.966;5.672;2023-04-28T15:18:31;18.6;63.2
78571;SHT31;67861;51.966;5.672;2023-04-28T15:21:03;18.6;63.4
78571;SHT31;67861;51.966;5.672;2023-04-28T15:23:33;18.5;63.5
78571;SHT31;67861;51.966;5.672;2023-04-28T15:26:08;18.5;63.3
78571;SHT31;67861;51.966;5.672;2023-04-28T15:28:39;18.5;63.7
78571;SHT31;67861;51.966;5.672;2023-04-28T15:31:09;18.5;63.7
78571;SHT31;67861;51.966;5.672;2023-04-28T15:33:40;18.4;63.9
78571;SHT31;67861;51.966;5.672;2023-04-28T15:36:11;18.4;64.1
78571;SHT31;67861;51.966;5.672;2023-04-28T15:38:42;18.3;64.2
78571;SHT31;67861;51.966;5.672;2023-04-28T15:41:13;18.3;64.7
78571;SHT31;67861;51.966;5.672;2023-04-28T15:44:10;18.3;65.1
78571;SHT31;67861;51.966;5.672;2023-04-28T15:46:43;18.2;65.1
78571;SHT31;67861;51.966;5.672;2023-04-28T15:49:13;18.2;65.5
78571;SHT31;67861;51.966;5.672;2023-04-28T15:51:43;18.2;65.3
78571;SHT31;67861;51.966;5.672;2023-04-28T15:54:13;18.2;65.5
78571;SHT31;67861;51.966;5.672;2023-04-28T15:56:42;18.2;65.5
78571;SHT31;67861;51.966;5.672;2023-04-28T15:59:12;18.2;65.2
78571;SHT31;67861;51.966;5.672;2023-04-28T16:01:44;18.2;65.3
78571;SHT31;67861;51.966;5.672;2023-04-28T16:04:14;18.2;65.2
78571;SHT31;67861;51.966;5.672;2023-04-28T16:06:44;18.2;65.2
78571;SHT31;67861;51.966;5.672;2023-04-28T16:09:13;18.1;64.9
78571;SHT31;67861;51.966;5.672;2023-04-28T16:11:43;18.1;65.2
78571;SHT31;67861;51.966;5.672;2023-04-28T16:14:14;18.1;65.2
78571;SHT31;67861;51.966;5.672;2023-04-28T16:16:45;18.1;65.2
78571;SHT31;67861;51.966;5.672;2023-04-28T16:19:15;18.0;65.5
78571;SHT31;67861;51.966;5.672;2023-04-28T16:21:45;18.0;65.7
78571;SHT31;67861;51.966;5.672;2023-04-28T16:24:17;18.0;65.7
78571;SHT31;67861;51.966;5.672;2023-04-28T16:26:49;18.0;66.2
78571;SHT31;67861;51.966;5.672;2023-04-28T16:29:19;17.9;66.2
78571;SHT31;67861;51.966;5.672;2023-04-28T16:31:49;17.9;65.9
78571;SHT31;67861;51.966;5.672;2023-04-28T16:34:19;17.9;66.0
78571;SHT31;67861;51.966;5.672;2023-04-28T16:36:49;17.9;66.2
78571;SHT31;67861;51.966;5.672;2023-04-28T16:39:21;17.9;65.9
78571;SHT31;67861;51.966;5.672;2023-04-28T16:41:51;17.9;65.7
78571;SHT31;67861;51.966;5.672;2023-04-28T16:44:20;17.9;65.6
78571;SHT31;67861;51.966;5.672;2023-04-28T16:46:50;17.9;66.1
78571;SHT31;67861;51.966;5.672;2023-04-28T16:49:20;17.9;65.8
78571;SHT31;67861;51.966;5.672;2023-04-28T16:51:59;17.8;65.9
78571;SHT31;67861;51.966;5.672;2023-04-28T16:54:31;17.8;66.2
78571;SHT31;67861;51.966;5.672;2023-04-28T16:57:01;17.8;66.3
78571;SHT31;67861;51.966;5.672;2023-04-28T16:59:30;17.8;66.3
78571;SHT31;67861;51.966;5.672;2023-04-28T17:02:00;17.7;66.5
78571;SHT31;67861;51.966;5.672;2023-04-28T17:04:31;17.7;66.4
78571;SHT31;67861;51.966;5.672;2023-04-28T17:07:03;17.7;66.5
78571;SHT31;67861;51.966;5.672;2023-04-28T17:09:32;17.7;66.8
78571;SHT31;67861;51.966;5.672;2023-04-28T17:12:02;17.7;66.4
78571;SHT31;67861;51.966;5.672;2023-04-28T17:14:32;17.7;66.5
78571;SHT31;67861;51.966;5.672;2023-04-28T17:17:02;17.7;66.5
78571;SHT31;67861;51.966;5.672;2023-04-28T17:19:31;17.7;66.6
78571;SHT31;67861;51.966;5.672;2023-04-28T17:22:02;17.6;66.4
78571;SHT31;67861;51.966;5.672;2023-04-28T17:24:31;17.6;66.6
78571;SHT31;67861;51.966;5.672;2023-04-28T17:27:03;17.6;66.8
78571;SHT31;67861;51.966;5.672;2023-04-28T17:29:32;17.6;66.8
78571;SHT31;67861;51.966;5.672;2023-04-28T17:32:03;17.6;66.5
78571;SHT31;67861;51.966;5.672;2023-04-28T17:34:32;17.6;66.8
78571;SHT31;67861;51.966;5.672;2023-04-28T17:37:02;17.5;66.7
78571;SHT31;67861;51.966;5.672;2023-04-28T17:39:32;17.5;67.0
78571;SHT31;67861;51.966;5.672;2023-04-28T17:42:01;17.5;67.1
78571;SHT31;67861;51.966;5.672;2023-04-28T17:44:31;17.5;67.1
78571;SHT31;67861;51.966;5.672;2023-04-28T17:47:00;17.4;67.2
78571;SHT31;67861;51.966;5.672;2023-04-28T17:49:30;17.4;67.3
78571;SHT31;67861;51.966;5.672;2023-04-28T17:51:59;17.4;67.4
78571;SHT31;67861;51.966;5.672;2023-04-28T17:54:29;17.3;67.3
78571;SHT31;67861;51.966;5.672;2023-04-28T17:57:00;17.3;67.4
78571;SHT31;67861;51.966;5.672;2023-04-28T17:59:30;17.3;67.5
78571;SHT31;67861;51.966;5.672;2023-04-28T18:01:59;17.3;67.5
78571;SHT31;67861;51.966;5.672;2023-04-28T18:04:29;17.2;67.7
78571;SHT31;67861;51.966;5.672;2023-04-28T18:07:00;17.2;67.8
78571;SHT31;67861;51.966;5.672;2023-04-28T18:09:29;17.2;67.9
78571;SHT31;67861;51.966;5.672;2023-04-28T18:11:59;17.2;67.7
78571;SHT31;67861;51.966;5.672;2023-04-28T18:14:30;17.2;67.8
78571;SHT31;67861;51.966;5.672;2023-04-28T18:17:00;17.2;67.8
78571;SHT31;67861;51.966;5.672;2023-04-28T18:19:31;17.1;67.8
78571;SHT31;67861;51.966;5.672;2023-04-28T18:22:01;17.1;67.9
78571;SHT31;67861;51.966;5.672;2023-04-28T18:24:30;17.1;67.7
78571;SHT31;67861;51.966;5.672;2023-04-28T18:27:00;17.1;67.9
78571;SHT31;67861;51.966;5.672;2023-04-28T18:29:30;17.1;67.8
78571;SHT31;67861;51.966;5.672;2023-04-28T18:32:00;17.0;67.9
78571;SHT31;67861;51.966;5.672;2023-04-28T18:34:29;17.0;68.0
78571;SHT31;67861;51.966;5.672;2023-04-28T18:36:58;17.0;67.9
78571;SHT31;67861;51.966;5.672;2023-04-28T18:39:28;17.0;67.9
78571;SHT31;67861;51.966;5.672;2023-04-28T18:41:58;17.0;67.9
78571;SHT31;67861;51.966;5.672;2023-04-28T18:44:27;17.0;68.0
78571;SHT31;67861;51.966;5.672;2023-04-28T18:46:57;16.9;68.0
78571;SHT31;67861;51.966;5.672;2023-04-28T18:49:27;16.9;67.7
78571;SHT31;67861;51.966;5.672;2023-04-28T18:51:56;16.9;67.6
78571;SHT31;67861;51.966;5.672;2023-04-28T18:54:28;16.9;67.7
78571;SHT31;67861;51.966;5.672;2023-04-28T18:56:59;16.8;67.6
78571;SHT31;67861;51.966;5.672;2023-04-28T18:59:29;16.8;67.8
78571;SHT31;67861;51.966;5.672;2023-04-28T19:02:00;16.8;67.7
78571;SHT31;67861;51.966;5.672;2023-04-28T19:04:30;16.8;67.8
78571;SHT31;67861;51.966;5.672;2023-04-28T19:07:00;16.7;67.9
78571;SHT31;67861;51.966;5.672;2023-04-28T19:09:29;16.7;67.8
78571;SHT31;67861;51.966;5.672;2023-04-28T19:11:59;16.7;67.2
78571;SHT31;67861;51.966;5.672;2023-04-28T19:14:29;16.7;67.1
78571;SHT31;67861;51.966;5.672;2023-04-28T19:16:58;16.6;67.4
78571;SHT31;67861;51.966;5.672;2023-04-28T19:19:28;16.6;67.3
78571;SHT31;67861;51.966;5.672;2023-04-28T19:21:59;16.6;67.2
78571;SHT31;67861;51.966;5.672;2023-04-28T19:24:29;16.5;66.9
78571;SHT31;67861;51.966;5.672;2023-04-28T19:26:59;16.5;66.7
78571;SHT31;67861;51.966;5.672;2023-04-28T19:29:29;16.5;66.3
78571;SHT31;67861;51.966;5.672;2023-04-28T19:31:59;16.4;66.2
78571;SHT31;67861;51.966;5.672;2023-04-28T19:34:28;16.4;66.0
78571;SHT31;67861;51.966;5.672;2023-04-28T19:36:58;16.4;65.9
78571;SHT31;67861;51.966;5.672;2023-04-28T19:39:28;16.3;66.0
78571;SHT31;67861;51.966;5.672;2023-04-28T19:41:58;16.3;65.7
78571;SHT31;67861;51.966;5.672;2023-04-28T19:44:27;16.3;65.7
78571;SHT31;67861;51.966;5.672;2023-04-28T19:46:57;16.2;65.9
78571;SHT31;67861;51.966;5.672;2023-04-28T19:49:27;16.2;66.1
78571;SHT31;67861;51.966;5.672;2023-04-28T19:51:56;16.2;66.1
78571;SHT31;67861;51.966;5.672;2023-04-28T19:54:26;16.1;66.0
78571;SHT31;67861;51.966;5.672;2023-04-28T19:56:56;16.1;66.1
78571;SHT31;67861;51.966;5.672;2023-04-28T19:59:30;16.1;66.0
78571;SHT31;67861;51.966;5.672;2023-04-28T20:02:00;16.1;65.8
78571;SHT31;67861;51.966;5.672;2023-04-28T20:04:29;16.1;65.7
78571;SHT31;67861;51.966;5.672;2023-04-28T20:06:59;16.0;65.8
78571;SHT31;67861;51.966;5.672;2023-04-28T20:09:29;16.0;65.8
78571;SHT31;67861;51.966;5.672;2023-04-28T20:12:02;16.0;65.8
78571;SHT31;67861;51.966;5.672;2023-04-28T20:14:32;16.0;65.6
78571;SHT31;67861;51.966;5.672;2023-04-28T20:17:02;15.9;65.7
78571;SHT31;67861;51.966;5.672;2023-04-28T20:19:32;15.9;65.2
78571;SHT31;67861;51.966;5.672;2023-04-28T20:22:03;15.9;65.7
78571;SHT31;67861;51.966;5.672;2023-04-28T20:24:33;15.8;65.6
78571;SHT31;67861;51.966;5.672;2023-04-28T20:27:03;15.8;65.4
78571;SHT31;67861;51.966;5.672;2023-04-28T20:29:33;15.8;65.2
78571;SHT31;67861;51.966;5.672;2023-04-28T20:32:03;15.7;65.4
78571;SHT31;67861;51.966;5.672;2023-04-28T20:34:33;15.7;65.2
78571;SHT31;67861;51.966;5.672;2023-04-28T20:37:06;15.7;65.1
78571;SHT31;67861;51.966;5.672;2023-04-28T20:39:37;15.7;65.0
78571;SHT31;67861;51.966;5.672;2023-04-28T20:42:07;15.6;65.0
78571;SHT31;67861;51.966;5.672;2023-04-28T20:44:36;15.6;65.3
78571;SHT31;67861;51.966;5.672;2023-04-28T20:47:07;15.6;65.4
78571;SHT31;67861;51.966;5.672;2023-04-28T20:49:39;15.5;65.6
78571;SHT31;67861;51.966;5.672;2023-04-28T20:52:08;15.5;65.5
78571;SHT31;67861;51.966;5.672;2023-04-28T20:54:38;15.5;65.3
78571;SHT31;67861;51.966;5.672;2023-04-28T20:57:10;15.4;65.7
78571;SHT31;67861;51.966;5.672;2023-04-28T20:59:40;15.4;65.7
78571;SHT31;67861;51.966;5.672;2023-04-28T21:02:10;15.4;65.9
78571;SHT31;67861;51.966;5.672;2023-04-28T21:04:40;15.3;65.8
78571;SHT31;67861;51.966;5.672;2023-04-28T21:07:09;15.3;66.1
78571;SHT31;67861;51.966;5.672;2023-04-28T21:09:39;15.3;66.2
78571;SHT31;67861;51.966;5.672;2023-04-28T21:12:10;15.3;66.3
78571;SHT31;67861;51.966;5.672;2023-04-28T21:14:39;15.3;66.0
78571;SHT31;67861;51.966;5.672;2023-04-28T21:17:09;15.3;66.2
78571;SHT31;67861;51.966;5.672;2023-04-28T21:19:39;15.2;66.2
78571;SHT31;67861;51.966;5.672;2023-04-28T21:22:09;15.2;66.1
78571;SHT31;67861;51.966;5.672;2023-04-28T21:24:38;15.2;66.3
78571;SHT31;67861;51.966;5.672;2023-04-28T21:27:08;15.2;66.3
78571;SHT31;67861;51.966;5.672;2023-04-28T21:29:37;15.1;66.5
78571;SHT31;67861;51.966;5.672;2023-04-28T21:32:09;15.1;66.4
78571;SHT31;67861;51.966;5.672;2023-04-28T21:34:39;15.1;66.8
78571;SHT31;67861;51.966;5.672;2023-04-28T21:37:09;15.1;65.9
78571;SHT31;67861;51.966;5.672;2023-04-28T21:39:40;15.0;66.1
78571;SHT31;67861;51.966;5.672;2023-04-28T21:42:09;15.0;65.4
78571;SHT31;67861;51.966;5.672;2023-04-28T21:44:39;15.0;65.4
78571;SHT31;67861;51.966;5.672;2023-04-28T21:47:08;14.9;65.7
78571;SHT31;67861;51.966;5.672;2023-04-28T21:49:40;14.9;65.7
78571;SHT31;67861;51.966;5.672;2023-04-28T21:52:10;14.9;65.8
78571;SHT31;67861;51.966;5.672;2023-04-28T21:54:41;14.8;65.8
78571;SHT31;67861;51.966;5.672;2023-04-28T21:57:11;14.8;66.1
78571;SHT31;67861;51.966;5.672;2023-04-28T21:59:42;14.8;65.9
78571;SHT31;67861;51.966;5.672;2023-04-28T22:02:12;14.7;66.4
78571;SHT31;67861;51.966;5.672;2023-04-28T22:04:42;14.7;66.4
78571;SHT31;67861;51.966;5.672;2023-04-28T22:07:12;14.7;66.4
78571;SHT31;67861;51.966;5.672;2023-04-28T22:09:41;14.7;65.4
78571;SHT31;67861;51.966;5.672;2023-04-28T22:12:11;14.7;65.3
78571;SHT31;67861;51.966;5.672;2023-04-28T22:14:40;14.6;65.6
78571;SHT31;67861;51.966;5.672;2023-04-28T22:17:10;14.6;65.4
78571;SHT31;67861;51.966;5.672;2023-04-28T22:19:40;14.5;65.5
78571;SHT31;67861;51.966;5.672;2023-04-28T22:22:09;14.5;65.3
78571;SHT31;67861;51.966;5.672;2023-04-28T22:24:41;14.5;65.3
78571;SHT31;67861;51.966;5.672;2023-04-28T22:27:10;14.5;65.9
78571;SHT31;67861;51.966;5.672;2023-04-28T22:29:40;14.4;65.5
78571;SHT31;67861;51.966;5.672;2023-04-28T22:32:11;14.4;65.8
78571;SHT31;67861;51.966;5.672;2023-04-28T22:34:41;14.5;66.0
78571;SHT31;67861;51.966;5.672;2023-04-28T22:37:11;14.6;65.7
78571;SHT31;67861;51.966;5.672;2023-04-28T22:39:40;14.6;64.4
78571;SHT31;67861;51.966;5.672;2023-04-28T22:42:10;14.6;64.0
78571;SHT31;67861;51.966;5.672;2023-04-28T22:44:40;14.6;63.7
78571;SHT31;67861;51.966;5.672;2023-04-28T22:47:10;14.6;63.3
78571;SHT31;67861;51.966;5.672;2023-04-28T22:49:39;14.6;63.0
78571;SHT31;67861;51.966;5.672;2023-04-28T22:52:12;14.5;63.0
78571;SHT31;67861;51.966;5.672;2023-04-28T22:54:44;14.5;63.3
78571;SHT31;67861;51.966;5.672;2023-04-28T22:57:17;14.4;63.5
78571;SHT31;67861;51.966;5.672;2023-04-28T22:59:47;14.4;63.7
78571;SHT31;67861;51.966;5.672;2023-04-28T23:02:17;14.4;63.7
78571;SHT31;67861;51.966;5.672;2023-04-28T23:04:47;14.4;63.6
78571;SHT31;67861;51.966;5.672;2023-04-28T23:07:17;14.3;63.6
78571;SHT31;67861;51.966;5.672;2023-04-28T23:09:47;14.3;63.7
78571;SHT31;67861;51.966;5.672;2023-04-28T23:12:16;14.3;63.4
78571;SHT31;67861;51.966;5.672;2023-04-28T23:14:46;14.2;64.2
78571;SHT31;67861;51.966;5.672;2023-04-28T23:17:15;14.2;63.7
78571;SHT31;67861;51.966;5.672;2023-04-28T23:19:45;14.2;63.4
78571;SHT31;67861;51.966;5.672;2023-04-28T23:22:15;14.2;63.4
78571;SHT31;67861;51.966;5.672;2023-04-28T23:24:46;14.2;63.8
78571;SHT31;67861;51.966;5.672;2023-04-28T23:27:17;14.1;63.2
78571;SHT31;67861;51.966;5.672;2023-04-28T23:29:49;14.1;63.2
78571;SHT31;67861;51.966;5.672;2023-04-28T23:32:19;14.1;63.4
78571;SHT31;67861;51.966;5.672;2023-04-28T23:34:49;14.0;64.0
78571;SHT31;67861;51.966;5.672;2023-04-28T23:37:21;14.0;64.0
78571;SHT31;67861;51.966;5.672;2023-04-28T23:39:51;14.0;64.4
78571;SHT31;67861;51.966;5.672;2023-04-28T23:42:21;13.9;64.3
78571;SHT31;67861;51.966;5.672;2023-04-28T23:44:51;13.9;64.3
78571;SHT31;67861;51.966;5.672;2023-04-28T23:47:21;13.9;64.1
78571;SHT31;67861;51.966;5.672;2023-04-28T23:49:50;13.9;64.5
78571;SHT31;67861;51.966;5.672;2023-04-28T23:52:20;13.9;64.3
78571;SHT31;67861;51.966;5.672;2023-04-28T23:54:49;13.9;64.8
78571;SHT31;67861;51.966;5.672;2023-04-28T23:57:19;13.9;64.8
78571;SHT31;67861;51.966;5.672;2023-04-28T23:59:49;13.9;64.6
